Time;durP1;ratioP1;P1;durP2;ratioP2;P2;SDS_P1;SDS_P2;PMS_P1;PMS_P2;Temp;Humidity;BMP_temperature;BMP_pressure;BME280_temperature;BME280_humidity;BME280_pressure;Samples;Min_cycle;Max_cycle;Signal;HPM_P1;HPM_P2
2021/06/30 00:30:18;;;;;;;42.03;19.92;;;15.20;99.90;;;;;;4892652;28;20056;-64
2021/06/30 00:32:44;;;;;;;42.33;21.27;;;15.20;99.90;;;;;;5034363;28;20048;-64
2021/06/30 00:35:13;;;;;;;45.83;22.67;;;15.20;99.90;;;;;;5034128;28;20029;-64
2021/06/30 00:37:38;;;;;;;46.30;21.13;;;15.10;99.90;;;;;;5034292;28;20021;-64
2021/06/30 00:40:05;;;;;;;40.38;19.55;;;15.10;99.90;;;;;;5032750;28;20487;-64
2021/06/30 00:42:31;;;;;;;42.22;20.55;;;15.10;99.90;;;;;;5033723;28;20566;-63
2021/06/30 00:44:57;;;;;;;48.22;20.50;;;15.10;99.90;;;;;;5034284;28;20104;-63
2021/06/30 00:47:24;;;;;;;39.85;21.10;;;15.10;99.90;;;;;;5033983;28;20029;-64
2021/06/30 00:49:50;;;;;;;43.30;21.23;;;15.10;99.90;;;;;;5033893;28;20025;-64
2021/06/30 00:52:16;;;;;;;39.38;20.70;;;15.10;99.90;;;;;;5033787;28;20025;-65
2021/06/30 00:54:41;;;;;;;42.22;21.02;;;15.10;99.90;;;;;;5034144;28;20105;-65
2021/06/30 00:57:09;;;;;;;34.45;20.35;;;15.10;99.90;;;;;;5033692;28;20430;-65
2021/06/30 00:59:38;;;;;;;36.20;20.10;;;15.10;99.90;;;;;;5033538;28;20052;-64
2021/06/30 01:02:04;;;;;;;38.70;19.15;;;15.10;99.90;;;;;;5032499;28;20133;-66
2021/06/30 01:04:30;;;;;;;33.35;19.50;;;15.00;99.90;;;;;;5033913;28;20104;-65
2021/06/30 01:06:56;;;;;;;33.13;18.95;;;15.00;99.90;;;;;;5033656;28;20033;-64
2021/06/30 01:09:22;;;;;;;35.20;18.80;;;15.00;99.90;;;;;;5032273;28;20482;-64
2021/06/30 01:11:47;;;;;;;27.70;17.85;;;15.00;99.90;;;;;;5033192;28;20022;-64
2021/06/30 01:14:27;;;;;;;31.85;18.73;;;15.00;99.90;;;;;;5033637;28;20029;-65
2021/06/30 01:17:01;;;;;;;34.60;18.17;;;15.00;99.90;;;;;;5032106;28;20018;-64
2021/06/30 01:19:27;;;;;;;28.83;16.73;;;15.00;99.90;;;;;;5033678;28;20396;-64
2021/06/30 01:21:54;;;;;;;29.70;16.48;;;15.00;99.90;;;;;;5031993;28;20022;-65
2021/06/30 01:24:20;;;;;;;29.23;16.50;;;14.90;99.90;;;;;;5032185;28;20029;-65
2021/06/30 01:26:47;;;;;;;27.35;16.15;;;14.90;99.90;;;;;;5032043;28;20021;-65
2021/06/30 01:29:12;;;;;;;24.40;15.98;;;15.00;99.90;;;;;;5033372;28;20382;-65
2021/06/30 01:31:38;;;;;;;23.27;14.40;;;15.00;99.90;;;;;;5032839;28;20041;-64
2021/06/30 01:34:04;;;;;;;24.58;14.25;;;15.00;99.90;;;;;;5033576;28;20103;-63
2021/06/30 01:36:47;;;;;;;27.92;15.18;;;15.00;99.90;;;;;;5033431;28;20025;-63
2021/06/30 01:39:14;;;;;;;24.17;14.48;;;15.00;99.90;;;;;;5032664;28;20505;-62
2021/06/30 01:41:40;;;;;;;25.67;14.88;;;15.00;99.90;;;;;;5033062;28;20040;-62
2021/06/30 01:44:06;;;;;;;26.00;14.45;;;15.10;99.90;;;;;;5031717;28;20040;-62
2021/06/30 01:46:32;;;;;;;23.90;15.27;;;15.10;99.90;;;;;;5032803;28;20033;-62
2021/06/30 01:48:58;;;;;;;28.38;15.07;;;15.10;99.90;;;;;;5032517;28;20025;-62
2021/06/30 01:51:24;;;;;;;24.77;14.98;;;15.10;99.90;;;;;;5033821;28;20516;-62
2021/06/30 01:53:54;;;;;;;27.48;15.10;;;15.10;99.90;;;;;;5034092;28;20091;-62
2021/06/30 01:56:24;;;;;;;26.45;13.75;;;15.10;99.90;;;;;;5035999;28;20033;-62
2021/06/30 01:59:17;;;;;;;24.67;13.90;;;15.10;99.90;;;;;;5036873;28;20052;-62
2021/06/30 02:01:43;;;;;;;25.63;13.73;;;15.10;99.90;;;;;;5035230;28;20033;-61
2021/06/30 02:04:09;;;;;;;30.02;14.40;;;15.10;99.90;;;;;;5037790;28;20056;-61
2021/06/30 02:06:37;;;;;;;23.75;15.35;;;15.10;99.90;;;;;;5038877;28;20017;-61
2021/06/30 02:09:06;;;;;;;27.85;15.48;;;15.20;99.90;;;;;;5036587;28;20021;-61
2021/06/30 02:11:31;;;;;;;26.23;15.57;;;15.20;99.90;;;;;;5038312;28;20048;-61
2021/06/30 02:13:57;;;;;;;25.55;15.13;;;15.30;99.90;;;;;;5037408;28;20025;-61
2021/06/30 02:16:23;;;;;;;22.38;15.02;;;15.30;99.90;;;;;;5037846;28;20041;-61
2021/06/30 02:18:48;;;;;;;20.27;14.50;;;15.30;99.90;;;;;;5034087;28;20033;-61
2021/06/30 02:21:14;;;;;;;25.42;14.93;;;15.30;99.90;;;;;;5033283;28;20083;-61
2021/06/30 02:23:41;;;;;;;29.30;14.40;;;15.30;99.90;;;;;;5033699;28;20108;-61
2021/06/30 02:26:07;;;;;;;26.17;15.25;;;15.40;99.90;;;;;;5031624;28;20032;-61
2021/06/30 02:28:33;;;;;;;19.15;13.60;;;15.40;99.90;;;;;;5033105;28;20502;-61
2021/06/30 02:30:59;;;;;;;24.35;14.18;;;15.40;99.90;;;;;;5032877;28;20051;-61
2021/06/30 02:33:26;;;;;;;23.73;13.43;;;15.40;99.90;;;;;;5033083;28;20032;-61
2021/06/30 02:35:52;;;;;;;23.65;14.02;;;15.40;99.90;;;;;;5032466;28;20028;-61
2021/06/30 02:38:18;;;;;;;23.30;13.82;;;15.50;99.90;;;;;;5032748;28;20033;-61
2021/06/30 02:40:44;;;;;;;24.23;13.82;;;15.40;99.90;;;;;;5035766;28;20033;-61
2021/06/30 02:43:10;;;;;;;24.52;14.25;;;15.50;99.90;;;;;;5032870;28;20074;-61
2021/06/30 02:45:36;;;;;;;22.42;14.07;;;15.50;99.90;;;;;;5031993;28;20053;-61
2021/06/30 02:48:01;;;;;;;23.60;13.93;;;15.40;99.90;;;;;;5031557;28;20029;-61
2021/06/30 02:50:28;;;;;;;22.52;13.90;;;15.40;99.90;;;;;;5031247;28;20061;-61
2021/06/30 02:52:54;;;;;;;23.13;14.30;;;15.40;99.90;;;;;;5029872;28;20112;-61
2021/06/30 02:55:20;;;;;;;22.73;13.50;;;15.30;99.90;;;;;;5031757;28;20106;-61
2021/06/30 02:57:47;;;;;;;23.58;14.50;;;15.20;99.90;;;;;;5031516;28;20029;-61
2021/06/30 03:00:18;;;;;;;21.67;13.85;;;15.20;99.90;;;;;;5031376;28;20056;-61
2021/06/30 03:02:44;;;;;;;23.38;14.27;;;15.20;99.90;;;;;;5031614;28;20025;-62
2021/06/30 03:05:10;;;;;;;25.50;14.63;;;15.20;99.90;;;;;;5030529;28;20029;-62
2021/06/30 03:07:36;;;;;;;21.38;13.80;;;15.20;99.90;;;;;;5031207;28;20382;-62
2021/06/30 03:10:03;;;;;;;23.35;14.60;;;15.20;99.90;;;;;;5030124;28;20026;-62
2021/06/30 03:12:29;;;;;;;20.88;13.45;;;15.20;99.90;;;;;;5031444;28;20025;-65
2021/06/30 03:14:55;;;;;;;26.33;13.55;;;15.20;99.90;;;;;;5031378;28;20030;-66
2021/06/30 03:17:20;;;;;;;25.65;15.02;;;15.10;99.90;;;;;;5029978;28;20482;-65
2021/06/30 03:19:46;;;;;;;24.83;13.13;;;15.10;99.90;;;;;;5031682;28;20029;-65
2021/06/30 03:22:12;;;;;;;23.55;13.40;;;15.10;99.90;;;;;;5031358;28;20056;-65
2021/06/30 03:24:38;;;;;;;22.88;14.68;;;15.10;99.90;;;;;;5031526;28;20028;-64
2021/06/30 03:27:04;;;;;;;25.90;14.63;;;15.10;99.90;;;;;;5029739;28;20025;-65
2021/06/30 03:29:29;;;;;;;26.38;13.90;;;15.10;99.90;;;;;;5030817;28;20040;-64
2021/06/30 03:31:55;;;;;;;26.33;14.90;;;15.10;99.90;;;;;;5031308;28;20026;-64
2021/06/30 03:34:21;;;;;;;23.55;15.10;;;15.20;99.90;;;;;;5031202;28;20021;-65
2021/06/30 03:36:47;;;;;;;26.23;14.68;;;15.20;99.90;;;;;;5029604;28;20025;-65
2021/06/30 03:39:13;;;;;;;26.08;14.10;;;15.10;99.90;;;;;;5030774;28;20478;-65
2021/06/30 03:41:39;;;;;;;23.05;14.50;;;15.10;99.90;;;;;;5029786;28;20028;-65
2021/06/30 03:44:05;;;;;;;25.80;15.13;;;15.10;99.90;;;;;;5031164;28;20037;-65
2021/06/30 03:46:30;;;;;;;22.77;14.00;;;15.10;99.90;;;;;;5030231;28;20029;-64
2021/06/30 03:48:56;;;;;;;20.25;14.48;;;15.00;99.90;;;;;;5029405;28;20033;-64
2021/06/30 03:51:22;;;;;;;21.58;14.32;;;15.10;99.90;;;;;;5030896;28;20022;-64
2021/06/30 03:53:47;;;;;;;27.40;15.23;;;15.00;99.90;;;;;;5029630;28;20021;-65
2021/06/30 03:56:13;;;;;;;27.25;14.55;;;15.10;99.90;;;;;;5030657;28;20040;-65
2021/06/30 03:58:39;;;;;;;26.52;14.75;;;15.10;99.90;;;;;;5031036;28;20017;-66
2021/06/30 04:01:04;;;;;;;25.27;14.10;;;15.10;99.90;;;;;;5030681;28;20447;-65
2021/06/30 04:03:30;;;;;;;23.40;14.23;;;15.10;99.90;;;;;;5033617;28;20033;-64
2021/06/30 04:05:57;;;;;;;20.95;13.98;;;15.10;99.90;;;;;;5034841;28;20060;-64
2021/06/30 04:08:23;;;;;;;22.23;14.70;;;15.10;99.90;;;;;;5034625;28;20104;-64
2021/06/30 04:10:49;;;;;;;28.10;13.85;;;15.20;99.90;;;;;;5034352;28;20505;-63
2021/06/30 04:13:16;;;;;;;21.05;15.02;;;15.10;99.90;;;;;;5034855;28;20022;-63
2021/06/30 04:15:45;;;;;;;24.35;14.20;;;15.10;99.90;;;;;;5033253;28;20025;-63
2021/06/30 04:18:11;;;;;;;20.75;13.55;;;15.20;99.90;;;;;;5034729;28;20127;-62
2021/06/30 04:20:40;;;;;;;27.35;14.80;;;15.20;99.90;;;;;;5033054;28;20030;-62
2021/06/30 04:23:06;;;;;;;23.13;14.40;;;15.20;99.90;;;;;;5034375;28;20026;-66
2021/06/30 04:25:31;;;;;;;20.48;13.35;;;15.20;99.90;;;;;;5032865;28;20624;-65
2021/06/30 04:27:57;;;;;;;22.35;13.48;;;15.20;99.90;;;;;;5034304;28;20025;-64
2021/06/30 04:30:22;;;;;;;23.08;14.15;;;15.10;99.90;;;;;;5032872;28;20394;-66
2021/06/30 04:32:48;;;;;;;25.45;13.85;;;15.10;99.90;;;;;;5034240;28;20143;-64
2021/06/30 04:35:14;;;;;;;24.35;14.63;;;15.00;99.90;;;;;;5034089;28;20103;-64
2021/06/30 04:37:39;;;;;;;22.75;14.13;;;15.10;99.90;;;;;;5034183;28;20457;-63
2021/06/30 04:40:06;;;;;;;25.52;14.50;;;15.10;99.90;;;;;;5033877;28;20029;-63
2021/06/30 04:42:31;;;;;;;22.33;14.52;;;15.10;99.90;;;;;;5034151;28;20041;-62
2021/06/30 04:44:57;;;;;;;26.25;13.45;;;15.10;99.90;;;;;;5034262;28;20029;-62
2021/06/30 04:47:23;;;;;;;22.45;14.00;;;15.10;99.90;;;;;;5034160;28;20025;-62
2021/06/30 04:49:48;;;;;;;21.83;13.63;;;15.10;99.90;;;;;;5034445;28;20116;-62
2021/06/30 04:52:14;;;;;;;27.02;14.52;;;15.10;99.90;;;;;;5035190;28;20024;-62
2021/06/30 04:54:39;;;;;;;22.70;13.57;;;15.10;99.90;;;;;;5035597;28;20087;-62
2021/06/30 04:57:05;;;;;;;27.85;13.98;;;15.10;99.90;;;;;;5035018;28;20033;-62
2021/06/30 04:59:31;;;;;;;23.05;14.02;;;15.10;99.90;;;;;;5034657;28;20026;-62
2021/06/30 05:01:56;;;;;;;21.27;13.35;;;15.20;99.90;;;;;;5037290;28;20085;-62
2021/06/30 05:04:22;;;;;;;20.60;13.15;;;15.10;99.90;;;;;;5039647;28;20047;-61
2021/06/30 05:06:48;;;;;;;26.85;13.52;;;15.10;99.90;;;;;;5037771;28;20075;-61
2021/06/30 05:09:14;;;;;;;21.17;13.57;;;15.20;99.90;;;;;;5037605;28;20382;-63
2021/06/30 05:11:39;;;;;;;23.02;13.43;;;15.20;99.90;;;;;;5034981;28;20018;-61
2021/06/30 05:14:05;;;;;;;20.58;14.07;;;15.20;99.90;;;;;;5033121;28;20029;-62
2021/06/30 05:16:31;;;;;;;21.92;13.93;;;15.10;99.90;;;;;;5033270;28;20026;-65
2021/06/30 05:18:56;;;;;;;22.63;14.55;;;15.10;99.90;;;;;;5032144;28;20022;-64
2021/06/30 05:21:22;;;;;;;24.20;13.85;;;15.00;99.90;;;;;;5033242;28;20034;-65
2021/06/30 05:23:49;;;;;;;25.73;15.35;;;14.90;99.90;;;;;;5032348;28;20452;-66
2021/06/30 05:26:14;;;;;;;26.15;15.75;;;15.00;99.90;;;;;;5032204;28;20441;-64
2021/06/30 05:28:40;;;;;;;28.63;15.73;;;14.90;99.90;;;;;;5033416;28;20041;-67
2021/06/30 05:31:06;;;;;;;24.25;14.32;;;15.00;99.90;;;;;;5032943;28;20049;-65
2021/06/30 05:33:31;;;;;;;22.70;14.52;;;15.00;99.90;;;;;;5033355;28;20038;-66
2021/06/30 05:35:57;;;;;;;24.38;15.60;;;15.00;99.90;;;;;;5033346;28;20036;-65
2021/06/30 05:38:24;;;;;;;20.25;14.73;;;15.10;99.90;;;;;;5033031;28;20026;-65
2021/06/30 05:40:50;;;;;;;26.05;15.43;;;15.10;99.90;;;;;;5031646;28;20048;-64
2021/06/30 05:43:15;;;;;;;23.42;15.32;;;15.10;99.90;;;;;;5032990;28;20029;-64
2021/06/30 05:45:42;;;;;;;23.15;14.10;;;15.00;99.90;;;;;;5033045;28;20044;-66
2021/06/30 05:48:07;;;;;;;22.83;13.77;;;15.00;99.90;;;;;;5031631;28;20030;-65
2021/06/30 05:50:34;;;;;;;26.05;14.38;;;15.10;99.90;;;;;;5030037;28;20533;-66
2021/06/30 05:52:59;;;;;;;24.52;13.52;;;15.00;99.90;;;;;;5032313;28;20057;-65
2021/06/30 05:55:25;;;;;;;24.45;14.13;;;15.00;99.90;;;;;;5030333;28;20060;-65
2021/06/30 05:57:51;;;;;;;23.75;13.70;;;14.90;99.90;;;;;;5028742;28;20079;-64
2021/06/30 06:00:19;;;;;;;22.70;14.23;;;14.90;99.90;;;;;;5030164;28;20120;-64
2021/06/30 06:02:45;;;;;;;29.50;14.70;;;14.90;99.90;;;;;;5011630;28;20449;-66
2021/06/30 06:05:11;;;;;;;25.15;15.13;;;14.90;99.90;;;;;;5030644;28;20385;-66
2021/06/30 06:07:37;;;;;;;25.95;15.57;;;14.90;99.90;;;;;;5024808;28;20337;-65
2021/06/30 06:10:05;;;;;;;31.33;17.17;;;15.00;99.90;;;;;;5029959;28;20028;-65
2021/06/30 06:12:30;;;;;;;34.10;15.63;;;15.00;99.90;;;;;;5012142;28;20059;-66
2021/06/30 06:14:56;;;;;;;31.67;15.20;;;15.00;99.90;;;;;;5025177;28;20334;-65
2021/06/30 06:17:22;;;;;;;28.77;15.77;;;15.00;99.90;;;;;;5028741;28;20438;-65
2021/06/30 06:19:48;;;;;;;32.67;15.32;;;15.10;99.90;;;;;;5023932;28;20036;-66
2021/06/30 06:22:14;;;;;;;22.83;14.02;;;15.10;99.90;;;;;;5027126;28;20029;-65
2021/06/30 06:24:39;;;;;;;24.45;13.30;;;15.10;99.90;;;;;;5024379;28;20037;-64
2021/06/30 06:27:07;;;;;;;21.65;13.13;;;15.10;99.90;;;;;;5025866;28;20033;-65
2021/06/30 06:29:37;;;;;;;22.63;13.48;;;15.10;99.90;;;;;;5028782;28;20028;-65
2021/06/30 06:32:03;;;;;;;19.63;12.32;;;15.10;99.90;;;;;;5024783;28;20083;-65
2021/06/30 06:34:28;;;;;;;19.10;11.82;;;15.10;99.90;;;;;;5021459;28;20026;-65
2021/06/30 06:36:55;;;;;;;21.25;12.60;;;15.00;99.90;;;;;;5016414;28;20025;-67
2021/06/30 06:39:21;;;;;;;26.83;13.10;;;15.00;99.90;;;;;;5023497;28;20238;-66
2021/06/30 06:41:48;;;;;;;27.77;13.45;;;15.00;99.90;;;;;;5022578;28;20377;-65
2021/06/30 06:44:15;;;;;;;30.90;14.27;;;15.00;99.90;;;;;;5024333;28;20040;-64
2021/06/30 06:46:41;;;;;;;67.70;18.10;;;15.00;99.90;;;;;;5014365;28;20048;-63
2021/06/30 06:49:07;;;;;;;98.13;21.05;;;15.00;99.90;;;;;;5011569;28;20025;-63
2021/06/30 06:51:34;;;;;;;95.93;19.27;;;15.00;99.90;;;;;;5023323;28;20129;-63
2021/06/30 06:54:00;;;;;;;63.75;17.08;;;15.00;99.90;;;;;;5019802;28;20037;-63
2021/06/30 06:56:26;;;;;;;31.17;13.68;;;15.10;99.90;;;;;;5015704;28;20021;-64
2021/06/30 06:58:53;;;;;;;25.35;13.98;;;15.10;99.90;;;;;;5024193;28;20106;-66
2021/06/30 07:01:18;;;;;;;26.77;12.85;;;15.20;99.90;;;;;;5021791;28;20022;-64
2021/06/30 07:03:45;;;;;;;34.38;13.48;;;15.10;99.90;;;;;;5025018;28;20029;-65
2021/06/30 07:06:10;;;;;;;23.15;12.52;;;15.10;99.90;;;;;;5017495;28;20947;-66
2021/06/30 07:08:36;;;;;;;24.42;12.48;;;15.00;99.90;;;;;;5018652;28;20057;-65
2021/06/30 07:11:02;;;;;;;45.42;15.05;;;15.00;99.90;;;;;;5021153;28;20418;-63
2021/06/30 07:13:27;;;;;;;101.57;19.77;;;15.20;99.90;;;;;;5016784;28;20037;-63
2021/06/30 07:15:53;;;;;;;89.03;19.45;;;15.20;99.90;;;;;;5020838;28;20504;-62
2021/06/30 07:18:19;;;;;;;91.55;17.05;;;15.40;99.90;;;;;;5018388;28;20498;-61
2021/06/30 07:20:44;;;;;;;44.35;13.80;;;15.40;99.90;;;;;;5017949;28;20119;-62
2021/06/30 07:23:14;;;;;;;73.35;15.88;;;15.30;99.90;;;;;;5023161;28;20074;-62
2021/06/30 07:25:40;;;;;;;105.63;20.08;;;15.50;99.90;;;;;;5019880;28;20465;-64
2021/06/30 07:28:08;;;;;;;57.17;15.13;;;15.50;99.90;;;;;;5024269;28;20033;-62
2021/06/30 07:30:34;;;;;;;39.88;14.30;;;15.50;99.90;;;;;;5023064;28;20079;-64
2021/06/30 07:33:00;;;;;;;30.60;12.65;;;15.40;99.90;;;;;;5024513;28;20061;-62
2021/06/30 07:35:25;;;;;;;34.75;13.48;;;15.40;99.90;;;;;;5017217;28;20037;-64
2021/06/30 07:37:51;;;;;;;23.67;12.13;;;15.30;99.90;;;;;;5023770;28;20035;-62
2021/06/30 07:40:17;;;;;;;23.90;13.18;;;15.20;99.90;;;;;;5022813;28;20033;-63
2021/06/30 07:42:44;;;;;;;26.58;13.65;;;15.30;99.90;;;;;;5021113;28;20116;-63
2021/06/30 07:45:10;;;;;;;26.15;14.07;;;15.20;99.90;;;;;;5022170;28;20033;-63
2021/06/30 07:47:35;;;;;;;27.88;14.10;;;15.20;99.90;;;;;;5025390;28;20032;-63
2021/06/30 07:50:05;;;;;;;23.33;14.25;;;15.20;99.90;;;;;;5024132;28;20042;-63
2021/06/30 07:52:31;;;;;;;28.15;13.35;;;15.30;99.90;;;;;;5023845;28;20040;-63
2021/06/30 07:54:57;;;;;;;24.40;13.32;;;15.30;99.90;;;;;;5021966;28;20108;-64
2021/06/30 07:57:23;;;;;;;32.25;14.30;;;15.30;99.90;;;;;;5024742;28;20452;-65
2021/06/30 07:59:48;;;;;;;25.52;13.60;;;15.30;99.90;;;;;;5019182;28;20525;-63
2021/06/30 08:02:14;;;;;;;38.58;15.80;;;15.40;99.90;;;;;;5022383;28;20125;-62
2021/06/30 08:04:43;;;;;;;42.88;14.77;;;15.50;99.90;;;;;;5014184;28;20083;-62
2021/06/30 08:07:09;;;;;;;62.00;17.90;;;15.60;99.90;;;;;;5011350;28;20060;-61
2021/06/30 08:09:35;;;;;;;27.52;13.85;;;15.60;99.90;;;;;;5020398;28;20119;-62
2021/06/30 08:12:05;;;;;;;64.70;16.65;;;15.60;99.90;;;;;;5019406;28;20025;-61
2021/06/30 08:14:32;;;;;;;52.45;16.38;;;15.60;99.90;;;;;;5015994;28;20401;-62
2021/06/30 08:16:58;;;;;;;33.80;14.32;;;15.80;99.90;;;;;;5008257;28;20017;-60
2021/06/30 08:19:23;;;;;;;36.85;15.32;;;15.90;99.90;;;;;;5020534;28;20036;-62
2021/06/30 08:21:50;;;;;;;65.60;19.15;;;15.90;99.90;;;;;;5026586;28;20033;-62
2021/06/30 08:24:16;;;;;;;37.67;16.15;;;16.00;99.90;;;;;;5021780;28;20100;-61
2021/06/30 08:26:43;;;;;;;87.05;20.95;;;16.00;99.90;;;;;;5009828;28;20116;-62
2021/06/30 08:29:08;;;;;;;30.30;14.70;;;16.00;99.90;;;;;;5019007;28;20439;-59
2021/06/30 08:31:34;;;;;;;29.98;15.15;;;16.00;99.90;;;;;;5014566;28;20482;-64
2021/06/30 08:34:00;;;;;;;29.52;14.75;;;16.00;99.90;;;;;;5015240;28;20031;-62
2021/06/30 08:36:25;;;;;;;21.38;14.15;;;15.80;99.90;;;;;;5004309;28;20454;-61
2021/06/30 08:38:51;;;;;;;32.83;15.50;;;15.60;99.90;;;;;;5019874;28;20112;-63
2021/06/30 08:41:19;;;;;;;37.17;15.35;;;15.50;99.90;;;;;;5015261;28;20025;-62
2021/06/30 08:43:45;;;;;;;33.17;16.27;;;15.50;99.90;;;;;;5022502;28;20657;-62
2021/06/30 08:46:14;;;;;;;33.97;15.73;;;15.50;99.90;;;;;;5009346;28;20406;-61
2021/06/30 08:48:41;;;;;;;40.03;15.80;;;15.60;99.90;;;;;;5024413;28;20033;-61
2021/06/30 08:51:09;;;;;;;28.17;16.27;;;15.60;99.90;;;;;;5023570;28;20040;-61
2021/06/30 08:53:39;;;;;;;31.52;16.60;;;15.80;99.90;;;;;;5023689;28;20025;-61
2021/06/30 08:56:05;;;;;;;50.35;16.70;;;15.70;99.90;;;;;;5011225;28;20064;-62
2021/06/30 08:58:30;;;;;;;30.73;15.20;;;15.70;99.90;;;;;;5026038;28;20065;-62
2021/06/30 09:00:56;;;;;;;29.70;16.77;;;15.80;99.90;;;;;;5027919;28;20037;-61
2021/06/30 09:03:22;;;;;;;40.38;15.93;;;15.90;99.90;;;;;;5026233;28;20061;-61
2021/06/30 09:08:36;;;;;;;30.02;14.90;;;16.00;99.90;;;;;;5032043;28;20117;-61
2021/06/30 09:11:12;;;;;;;30.60;15.30;;;16.10;99.90;;;;;;5024259;28;20028;-60
2021/06/30 09:13:38;;;;;;;26.17;15.35;;;16.10;99.90;;;;;;5026106;28;20045;-60
2021/06/30 09:16:04;;;;;;;24.67;14.75;;;16.20;99.90;;;;;;5026258;28;20032;-60
2021/06/30 09:18:36;;;;;;;33.28;15.30;;;16.20;99.90;;;;;;5027126;28;20140;-61
2021/06/30 09:21:28;;;;;;;24.85;13.93;;;16.30;99.90;;;;;;5030638;28;20029;-61
2021/06/30 09:24:07;;;;;;;28.88;14.68;;;16.40;99.90;;;;;;5027333;28;20450;-60
2021/06/30 09:26:35;;;;;;;34.22;15.43;;;16.40;99.90;;;;;;5022057;28;20034;-61
2021/06/30 09:29:08;;;;;;;27.40;14.15;;;16.40;99.90;;;;;;5019597;28;20091;-65
2021/06/30 09:31:37;;;;;;;27.77;14.10;;;16.40;99.90;;;;;;5021532;28;20045;-55
2021/06/30 09:34:04;;;;;;;30.85;14.52;;;16.30;99.90;;;;;;5022074;28;20478;-56
2021/06/30 09:36:42;;;;;;;29.60;14.32;;;16.30;99.90;;;;;;5030818;28;20405;-55
2021/06/30 09:39:12;;;;;;;31.58;14.25;;;16.40;99.90;;;;;;5020329;28;20025;-55
2021/06/30 09:41:41;;;;;;;23.33;13.75;;;16.60;99.90;;;;;;5023797;28;20132;-55
2021/06/30 09:44:18;;;;;;;29.60;13.25;;;16.60;99.90;;;;;;5031091;28;20071;-55
2021/06/30 09:46:44;;;;;;;26.60;14.43;;;16.60;99.90;;;;;;5025093;28;20083;-56
2021/06/30 09:49:13;;;;;;;25.63;13.65;;;16.60;99.90;;;;;;5018734;28;20467;-55
2021/06/30 09:51:40;;;;;;;22.60;13.35;;;16.70;99.90;;;;;;5020722;28;20026;-54
2021/06/30 09:54:07;;;;;;;25.20;13.00;;;16.70;99.90;;;;;;5018916;28;20025;-55
2021/06/30 09:56:34;;;;;;;23.98;13.35;;;16.70;99.90;;;;;;5015597;28;20112;-56
2021/06/30 09:59:22;;;;;;;20.10;12.77;;;16.80;99.90;;;;;;5022162;28;20247;-56
2021/06/30 10:01:59;;;;;;;25.13;13.43;;;16.90;99.90;;;;;;5017588;28;20329;-56
2021/06/30 10:04:30;;;;;;;26.30;11.40;;;17.00;99.90;;;;;;5011638;28;20550;-56
2021/06/30 10:06:57;;;;;;;22.23;11.85;;;17.20;99.90;;;;;;5019436;28;20355;-56
2021/06/30 10:09:23;;;;;;;23.67;11.85;;;17.00;99.90;;;;;;5017146;28;20464;-56
2021/06/30 10:12:07;;;;;;;23.52;11.45;;;16.90;99.90;;;;;;5021947;28;20357;-56
2021/06/30 10:14:34;;;;;;;17.70;11.95;;;16.70;99.90;;;;;;5020447;28;20547;-56
2021/06/30 10:17:00;;;;;;;20.70;11.57;;;16.60;99.90;;;;;;5025167;28;20104;-56
2021/06/30 10:19:27;;;;;;;19.02;12.00;;;16.60;99.90;;;;;;5023482;28;20025;-56
2021/06/30 10:21:53;;;;;;;18.45;13.18;;;16.40;99.90;;;;;;5021376;28;20360;-56
2021/06/30 10:24:19;;;;;;;22.23;12.93;;;16.30;99.90;;;;;;5025291;28;20496;-56
2021/06/30 10:26:45;;;;;;;24.95;13.13;;;16.20;99.90;;;;;;5033082;28;20087;-54
2021/06/30 10:29:12;;;;;;;23.48;12.85;;;16.10;99.90;;;;;;5019227;28;20033;-55
2021/06/30 10:31:38;;;;;;;25.25;13.07;;;16.00;99.90;;;;;;5024029;28;20041;-55
2021/06/30 10:34:09;;;;;;;28.90;13.75;;;15.90;99.90;;;;;;5015407;28;20029;-55
2021/06/30 10:36:55;;;;;;;26.15;13.55;;;15.90;99.90;;;;;;5014261;28;20134;-54
2021/06/30 10:39:43;;;;;;;27.92;13.07;;;15.90;99.90;;;;;;5014993;28;20039;-55
2021/06/30 10:42:34;;;;;;;23.58;11.73;;;16.00;99.90;;;;;;5013837;28;20046;-55
2021/06/30 10:45:17;;;;;;;18.73;12.23;;;16.00;99.90;;;;;;5017200;28;20036;-55
2021/06/30 10:47:43;;;;;;;;;;;16.10;99.90;;;;;;5018409;28;20072;-55
2021/06/30 10:50:35;;;;;;;26.73;13.88;;;16.20;99.90;;;;;;5020744;28;19920;-55
2021/06/30 10:53:01;;;;;;;23.17;12.25;;;16.30;99.90;;;;;;4987917;28;20442;-54
2021/06/30 10:58:11;;;;;;;19.52;12.05;;;16.50;99.90;;;;;;5029800;28;20033;-55
2021/06/30 11:00:38;;;;;;;23.48;13.10;;;16.70;99.90;;;;;;5031595;28;20033;-55
2021/06/30 11:03:41;;;;;;;82.25;18.67;;;16.80;99.90;;;;;;5025425;28;20045;-56
2021/06/30 11:06:07;;;;;;;;;;;17.30;99.90;;;;;;5016913;28;20429;-55
2021/06/30 11:08:46;;;;;;;34.70;12.15;;;17.50;99.90;;;;;;5022414;28;19913;-55
2021/06/30 11:11:16;;;;;;;29.98;11.10;;;17.80;99.90;;;;;;5024558;28;20030;-55
2021/06/30 11:14:11;;;;;;;45.92;12.07;;;18.00;99.90;;;;;;5019986;28;20521;-55
2021/06/30 11:16:37;;;;;;;35.67;11.55;;;18.10;99.90;;;;;;5017433;28;20525;-55
2021/06/30 11:19:06;;;;;;;26.70;11.32;;;18.20;99.90;;;;;;5013543;28;20029;-55
2021/06/30 11:21:53;;;;;;;44.15;12.50;;;18.20;99.90;;;;;;5029538;28;20381;-54
2021/06/30 11:29:59;;;;;;;26.05;10.38;;;18.60;99.90;;;;;;5001344;28;20049;-55
2021/06/30 11:32:42;;;;;;;16.85;9.05;;;18.80;99.90;;;;;;5008984;28;20050;-55
2021/06/30 11:35:11;;;;;;;19.05;6.70;;;18.90;99.90;;;;;;5033424;28;20029;-55
2021/06/30 11:37:38;;;;;;;19.05;7.60;;;18.70;99.90;;;;;;5046945;28;20025;-55
2021/06/30 11:40:11;;;;;;;14.63;6.00;;;18.80;99.90;;;;;;5038733;28;20037;-55
2021/06/30 11:42:44;;;;;;;15.82;5.40;;;18.90;99.90;;;;;;5028456;28;20026;-55
2021/06/30 11:45:21;;;;;;;19.92;5.72;;;19.00;99.90;;;;;;5026400;28;20033;-55
2021/06/30 11:47:50;;;;;;;18.02;5.38;;;19.10;99.90;;;;;;5029618;28;20029;-55
2021/06/30 11:50:18;;;;;;;16.30;5.07;;;18.90;99.90;;;;;;5016176;28;20496;-55
2021/06/30 11:52:48;;;;;;;14.93;4.22;;;19.00;99.90;;;;;;5012597;28;20105;-59
2021/06/30 11:55:14;;;;;;;13.77;4.22;;;19.30;99.90;;;;;;5011208;28;20030;-55
2021/06/30 11:58:00;;;;;;;20.45;5.28;;;19.50;99.90;;;;;;5025512;28;20029;-55
2021/06/30 12:00:28;;;;;;;8.50;3.72;;;19.80;99.90;;;;;;5028396;28;20033;-54
2021/06/30 12:02:56;;;;;;;9.13;3.38;;;20.20;99.90;;;;;;5026606;28;20045;-54
2021/06/30 12:05:25;;;;;;;22.55;4.15;;;20.30;99.90;;;;;;5009143;28;20034;-55
2021/06/30 12:07:55;;;;;;;7.53;3.40;;;20.20;99.90;;;;;;5010526;28;20113;-55
2021/06/30 12:10:23;;;;;;;5.00;3.08;;;20.20;99.90;;;;;;5009074;28;20041;-55
2021/06/30 12:12:49;;;;;;;6.25;3.85;;;20.40;99.90;;;;;;5010713;28;20029;-54
2021/06/30 12:15:16;;;;;;;11.00;5.22;;;19.50;99.90;;;;;;5011234;28;20068;-55
2021/06/30 12:17:50;;;;;;;12.05;5.85;;;18.90;99.90;;;;;;5009648;28;20034;-55
2021/06/30 12:20:18;;;;;;;13.45;6.20;;;18.30;99.90;;;;;;5011245;28;20077;-54
2021/06/30 12:22:45;;;;;;;11.02;5.97;;;17.80;99.90;;;;;;5011081;28;20030;-54
2021/06/30 12:25:16;;;;;;;8.82;4.93;;;17.60;99.90;;;;;;5015071;28;20029;-55
2021/06/30 12:28:09;;;;;;;11.85;5.15;;;17.30;99.90;;;;;;5014806;28;20505;-55
2021/06/30 12:30:37;;;;;;;;;;;17.30;99.90;;;;;;5011052;28;20045;-55
2021/06/30 12:33:07;;;;;;;8.32;4.40;;;17.10;99.90;;;;;;5014629;28;19917;-55
2021/06/30 12:35:36;;;;;;;11.27;5.22;;;17.10;99.90;;;;;;5013195;28;20121;-55
2021/06/30 12:38:20;;;;;;;10.10;4.40;;;17.10;99.90;;;;;;5014550;28;20101;-55
2021/06/30 12:40:46;;;;;;;8.43;4.95;;;17.10;99.90;;;;;;5014429;28;20549;-55
2021/06/30 12:43:17;;;;;;;9.90;4.70;;;17.20;99.90;;;;;;5014564;28;20125;-55
2021/06/30 12:45:46;;;;;;;9.40;4.70;;;17.40;99.90;;;;;;5014644;28;20068;-55
2021/06/30 12:48:19;;;;;;;9.07;4.82;;;17.60;99.90;;;;;;5014481;28;20041;-56
2021/06/30 12:50:53;;;;;;;11.05;4.82;;;17.90;99.90;;;;;;5014380;28;20026;-56
2021/06/30 12:53:24;;;;;;;16.55;5.15;;;18.00;99.90;;;;;;5014240;28;20044;-55
2021/06/30 12:55:54;;;;;;;7.72;3.28;;;18.40;99.90;;;;;;5014437;28;20022;-55
2021/06/30 12:58:21;;;;;;;11.68;2.58;;;18.40;99.90;;;;;;5014226;28;20352;-55
2021/06/30 13:01:01;;;;;;;11.70;2.55;;;18.50;99.90;;;;;;5012899;28;20398;-55
2021/06/30 13:03:33;;;;;;;15.63;2.83;;;18.80;99.90;;;;;;5014293;28;20037;-56
2021/06/30 13:06:17;;;;;;;26.77;3.33;;;19.00;99.90;;;;;;5013930;28;20117;-56
2021/06/30 13:08:45;;;;;;;11.43;2.83;;;19.30;99.90;;;;;;5014067;28;20486;-55
2021/06/30 13:11:18;;;;;;;15.90;3.10;;;19.00;99.90;;;;;;5014049;28;20125;-55
2021/06/30 13:14:03;;;;;;;22.17;2.92;;;18.70;99.90;;;;;;5039260;28;20022;-55
2021/06/30 13:16:31;;;;;;;17.45;3.10;;;18.70;99.90;;;;;;5027034;28;20148;-55